Time;durP1;ratioP1;P1;durP2;ratioP2;P2;SDS_P1;SDS_P2;PMS_P1;PMS_P2;Temp;Humidity;BMP_temperature;BMP_pressure;BME280_temperature;BME280_humidity;BME280_pressure;Samples;Min_cycle;Max_cycle;Signal;HPM_P1;HPM_P2
2022/11/20 00:01:16;;;;;;;18.50;8.98;;;;;;;0.97;71.02;99671.00;6169299;23;20016;-94
2022/11/20 00:03:43;;;;;;;15.75;8.05;;;;;;;0.49;71.24;99607.66;6142870;23;20016;-93
2022/11/20 00:06:12;;;;;;;16.40;8.75;;;;;;;0.50;71.29;99606.59;6168833;23;20013;-91
2022/11/20 00:08:38;;;;;;;16.73;8.88;;;;;;;0.72;71.33;99636.34;6144060;23;20024;-92
2022/11/20 00:11:13;;;;;;;16.85;8.50;;;;;;;0.81;71.38;99656.44;6166955;23;20486;-94
2022/11/20 00:13:39;;;;;;;17.75;9.40;;;;;;;0.83;71.60;99665.09;6165957;23;20017;-92
2022/11/20 00:16:07;;;;;;;16.45;8.93;;;;;;;0.18;71.33;99570.25;6166998;23;20013;-93
2022/11/20 00:18:34;;;;;;;;;;;;;;;0.68;71.70;99658.34;6165570;23;20340;-95
2022/11/20 00:21:05;;;;;;;18.92;9.43;;;;;;;0.10;71.83;99583.22;6141470;23;19916;-91
2022/11/20 00:23:31;;;;;;;19.67;9.80;;;;;;;0.19;72.28;99597.94;6190794;23;20021;-91
2022/11/20 00:26:08;;;;;;;18.30;8.88;;;;;;;0.56;72.43;99665.63;6141582;23;20020;-92
2022/11/20 00:28:34;;;;;;;17.30;8.68;;;;;;;-0.10;72.39;99570.19;6143243;23;20032;-91
2022/11/20 00:31:08;;;;;;;19.00;9.70;;;;;;;0.07;72.43;99586.44;6142467;23;20023;-92
2022/11/20 00:33:34;;;;;;;17.23;9.55;;;;;;;0.61;72.23;99655.00;6142828;23;20048;-92
2022/11/20 00:36:06;;;;;;;17.70;9.18;;;;;;;0.43;72.13;99630.94;6185186;23;20021;-90
2022/11/20 00:38:33;;;;;;;17.13;8.90;;;;;;;0.52;72.33;99658.31;6192776;22;20004;-91
2022/11/20 00:41:04;;;;;;;18.60;9.93;;;;;;;0.24;72.31;99616.88;6190900;23;20021;-92
2022/11/20 00:43:30;;;;;;;17.05;9.20;;;;;;;0.29;72.36;99645.72;6191111;22;19997;-90
2022/11/20 00:46:01;;;;;;;18.77;8.88;;;;;;;-0.11;72.06;99577.44;6216786;23;19996;-91
2022/11/20 00:48:27;;;;;;;20.88;10.45;;;;;;;-0.17;72.37;99566.81;6192235;22;20013;-90
2022/11/20 00:50:54;;;;;;;18.90;9.38;;;;;;;0.54;72.28;99659.69;6192760;22;20011;-92
2022/11/20 00:53:21;;;;;;;16.10;9.50;;;;;;;0.19;71.88;99595.25;6168009;22;20027;-91
2022/11/20 00:55:58;;;;;;;17.42;9.32;;;;;;;0.52;71.65;99653.72;6217579;22;20039;-89
2022/11/20 00:58:28;;;;;;;16.10;8.73;;;;;;;-0.11;71.84;99601.63;6217506;22;20009;-90
2022/11/20 01:01:01;;;;;;;17.38;9.02;;;;;;;0.32;72.09;99669.47;6194096;23;20032;-89
2022/11/20 01:03:32;;;;;;;15.95;8.63;;;;;;;-0.15;71.11;99588.91;6169712;22;20025;-89
2022/11/20 01:06:07;;;;;;;15.95;8.55;;;;;;;0.22;70.26;99627.03;6168902;23;20001;-90
2022/11/20 01:08:35;;;;;;;15.88;8.82;;;;;;;0.18;70.34;99626.69;6149176;23;20025;-90
2022/11/20 01:11:06;;;;;;;16.73;9.13;;;;;;;0.50;69.82;99649.63;6196232;23;20027;-92
2022/11/20 01:13:39;;;;;;;17.95;9.02;;;;;;;0.18;69.00;99599.81;6171334;23;20016;-91
2022/11/20 01:16:08;;;;;;;19.95;9.02;;;;;;;-0.19;69.15;99545.56;6144493;23;20025;-91
2022/11/20 01:18:36;;;;;;;16.00;9.30;;;;;;;0.51;69.19;99660.19;6145015;23;20020;-91
2022/11/20 01:21:05;;;;;;;17.83;8.85;;;;;;;-0.24;69.42;99558.88;6170388;23;20021;-93
2022/11/20 01:23:35;;;;;;;17.17;9.52;;;;;;;0.31;70.10;99660.56;6149182;23;20075;-90
2022/11/20 01:26:08;;;;;;;18.40;10.05;;;;;;;-0.51;70.32;99550.53;6176602;23;19997;-94
2022/11/20 01:28:35;;;;;;;20.40;9.73;;;;;;;-0.01;70.60;99626.03;6158968;23;20051;-89
2022/11/20 01:31:01;;;;;;;16.50;8.88;;;;;;;0.09;69.94;99619.25;6180949;23;20016;-90
2022/11/20 01:33:28;;;;;;;18.52;9.60;;;;;;;0.11;69.90;99652.91;6176434;23;20016;-89
2022/11/20 01:36:04;;;;;;;18.30;9.70;;;;;;;-0.16;70.22;99604.22;6151398;23;20000;-91
2022/11/20 01:38:30;;;;;;;17.95;8.93;;;;;;;-0.11;70.77;99628.50;6123778;23;20013;-94
2022/11/20 01:40:57;;;;;;;19.27;9.15;;;;;;;-0.40;70.43;99583.78;6137280;23;20020;-92
2022/11/20 01:43:25;;;;;;;17.30;8.32;;;;;;;-0.45;70.34;99591.75;6159944;23;20503;-91
2022/11/20 01:46:18;;;;;;;18.10;8.90;;;;;;;0.14;70.49;99671.25;6113031;23;20031;-95
2022/11/20 01:48:50;;;;;;;20.75;9.02;;;;;;;0.18;70.39;99685.03;6160045;23;20386;-88
2022/11/20 01:51:42;;;;;;;14.30;8.20;;;;;;;-0.33;69.95;99595.22;6158627;23;20028;-93
2022/11/20 01:54:16;;;;;;;13.90;7.68;;;;;;;-0.25;70.24;99611.81;6108777;23;20021;-91
2022/11/20 01:56:44;;;;;;;18.13;8.43;;;;;;;-0.45;70.04;99594.44;6158390;23;20021;-90
2022/11/20 01:59:14;;;;;;;15.25;8.18;;;;;;;0.23;69.85;99688.66;6114665;23;20016;-92
2022/11/20 02:01:40;;;;;;;13.75;7.90;;;;;;;-0.26;69.68;99633.53;6117268;23;20100;-93
2022/11/20 02:04:08;;;;;;;14.02;7.65;;;;;;;-0.33;70.08;99636.34;6136838;23;20017;-93
2022/11/20 02:06:51;;;;;;;16.00;8.30;;;;;;;0.14;70.53;99698.13;6157492;23;20013;-89
2022/11/20 02:09:18;;;;;;;16.83;8.02;;;;;;;-0.02;70.28;99680.03;6160230;23;20028;-95
2022/11/20 02:11:44;;;;;;;15.27;7.90;;;;;;;-0.07;69.88;99666.47;6137390;23;20094;-92
2022/11/20 02:14:10;;;;;;;14.68;8.38;;;;;;;-0.49;70.13;99620.94;6166787;23;20023;-90
2022/11/20 02:16:43;;;;;;;14.50;7.57;;;;;;;-0.10;70.25;99675.84;6141482;23;20016;-93
2022/11/20 02:19:20;;;;;;;14.73;8.23;;;;;;;-0.55;70.15;99619.97;6141222;23;20112;-93
2022/11/20 02:21:55;;;;;;;15.87;8.00;;;;;;;-0.32;70.21;99666.72;6165916;23;20025;-93
2022/11/20 02:24:22;;;;;;;16.33;7.63;;;;;;;-0.50;70.26;99630.00;6141750;23;20020;-92
2022/11/20 02:27:02;;;;;;;19.48;9.40;;;;;;;-0.08;70.36;99697.88;6167075;23;20095;-94
2022/11/20 02:29:36;;;;;;;15.10;8.10;;;;;;;-0.40;70.09;99662.47;6140687;23;20024;-93
2022/11/20 02:32:02;;;;;;;18.92;8.50;;;;;;;-0.54;69.97;99612.75;6140346;23;20098;-93
2022/11/20 02:34:29;;;;;;;14.30;8.10;;;;;;;-0.56;69.59;99604.13;6164708;23;20470;-93
2022/11/20 02:36:57;;;;;;;14.98;7.78;;;;;;;-0.44;69.37;99637.16;6163532;23;20056;-93
2022/11/20 02:39:26;;;;;;;13.93;8.07;;;;;;;-0.03;69.35;99687.28;6165328;23;20016;-93
2022/11/20 02:41:54;;;;;;;15.63;8.05;;;;;;;-0.18;69.17;99668.09;6165599;23;20400;-91
2022/11/20 02:44:20;;;;;;;;;;;;;;;0.22;69.27;99726.50;6165711;23;20024;-91
2022/11/20 02:46:46;;;;;;;15.05;7.55;;;;;;;-0.05;69.24;99691.25;6164810;23;20261;-91
2022/11/20 02:49:12;;;;;;;18.50;8.15;;;;;;;-0.05;69.21;99684.00;6139767;23;20020;-91
2022/11/20 02:51:38;;;;;;;17.50;8.90;;;;;;;-0.28;69.53;99665.19;6139736;23;20022;-90
2022/11/20 02:54:04;;;;;;;15.82;8.57;;;;;;;-0.32;69.35;99655.97;6140676;23;20116;-90
2022/11/20 02:58:59;;;;;;;16.02;8.23;;;;;;;-0.13;68.84;99662.88;6216875;23;20016;-90
2022/11/20 03:01:25;;;;;;;17.33;8.20;;;;;;;0.04;68.95;99695.22;6141878;23;20047;-93
2022/11/20 03:03:54;;;;;;;17.88;7.55;;;;;;;0.05;68.87;99702.22;6190760;23;20467;-94
2022/11/20 03:06:20;;;;;;;19.83;8.73;;;;;;;-0.19;69.27;99662.97;6140401;23;20027;-92
2022/11/20 03:08:46;;;;;;;16.17;8.68;;;;;;;0.05;68.89;99680.72;6165343;23;20026;-91
2022/11/20 03:11:12;;;;;;;17.55;8.57;;;;;;;-0.34;69.13;99641.94;6165343;23;20017;-95
2022/11/20 03:13:39;;;;;;;18.70;8.38;;;;;;;-0.25;69.04;99657.47;6141213;23;20021;-92
2022/11/20 03:16:18;;;;;;;14.82;8.00;;;;;;;-0.44;69.03;99639.00;6142647;23;20652;-93
2022/11/20 03:18:45;;;;;;;16.27;8.60;;;;;;;0.20;69.15;99742.09;6167402;23;20028;-91
2022/11/20 03:21:13;;;;;;;14.73;8.00;;;;;;;0.06;69.21;99735.28;6143907;23;20074;-91
2022/11/20 03:23:40;;;;;;;15.27;8.15;;;;;;;-0.16;69.06;99684.00;6142215;23;20071;-90
2022/11/20 03:26:14;;;;;;;21.85;9.63;;;;;;;-0.06;68.95;99711.94;6141528;23;20024;-91
2022/11/20 03:28:42;;;;;;;17.58;8.02;;;;;;;-0.13;68.99;99710.38;6143204;23;20028;-92
2022/11/20 03:31:13;;;;;;;18.75;8.40;;;;;;;-0.36;69.04;99681.66;6142549;23;20401;-91
2022/11/20 03:33:41;;;;;;;15.23;7.97;;;;;;;-0.32;69.28;99670.22;6141603;23;20009;-93
2022/11/20 03:36:14;;;;;;;;;;;;;;;0.19;68.86;99743.13;6141490;23;20023;-92
2022/11/20 03:38:40;;;;;;;17.25;8.43;;;;;;;-0.26;69.03;99677.34;6143080;23;19958;-93
2022/11/20 03:41:12;;;;;;;20.70;8.32;;;;;;;-0.24;69.00;99675.22;6143233;23;20367;-91
2022/11/20 03:43:40;;;;;;;18.65;9.32;;;;;;;-0.09;69.00;99682.84;6168487;23;20027;-91
2022/11/20 03:46:06;;;;;;;17.45;8.20;;;;;;;-0.07;68.56;99704.91;6144049;23;20103;-91
2022/11/20 03:48:33;;;;;;;19.52;8.98;;;;;;;-0.09;68.55;99706.19;6168609;23;20154;-90
2022/11/20 03:51:18;;;;;;;17.02;8.75;;;;;;;-0.53;68.64;99636.69;6192497;23;20342;-91
2022/11/20 03:53:45;;;;;;;18.58;8.70;;;;;;;-0.44;68.37;99650.56;6143505;23;20063;-91
2022/11/20 03:56:13;;;;;;;18.00;8.55;;;;;;;-0.29;68.19;99693.09;6144720;23;20017;-93
2022/11/20 03:58:40;;;;;;;16.38;8.40;;;;;;;-0.50;68.37;99648.81;6143631;23;20042;-92
2022/11/20 04:01:11;;;;;;;17.55;8.68;;;;;;;-0.16;68.55;99703.63;6143654;23;20016;-92
2022/11/20 04:03:39;;;;;;;15.93;8.02;;;;;;;-0.35;68.32;99670.66;6166326;23;20020;-90
2022/11/20 04:06:14;;;;;;;16.92;8.27;;;;;;;0.11;68.31;99754.22;6166692;23;20340;-91
2022/11/20 04:08:42;;;;;;;16.25;7.82;;;;;;;-0.19;68.28;99732.84;6142666;23;20028;-90
2022/11/20 04:11:09;;;;;;;20.77;7.95;;;;;;;-0.10;68.25;99728.72;6143018;23;20028;-90
2022/11/20 04:13:36;;;;;;;;;;;;;;;0.20;68.25;99777.84;6167767;23;20084;-90
2022/11/20 04:16:02;;;;;;;16.20;7.73;;;;;;;0.05;67.98;99747.09;6169360;23;19915;-93
2022/11/20 04:18:28;;;;;;;18.80;8.77;;;;;;;-0.22;67.88;99690.31;6167456;23;20247;-92
2022/11/20 04:20:57;;;;;;;17.65;8.25;;;;;;;-0.28;68.33;99708.16;6143200;23;20019;-93
2022/11/20 04:23:23;;;;;;;14.77;7.88;;;;;;;-0.28;68.07;99710.84;6142615;23;20020;-93
2022/11/20 04:25:50;;;;;;;17.85;8.85;;;;;;;-0.22;68.34;99717.19;6142514;23;20016;-93
2022/11/20 04:28:16;;;;;;;13.20;8.02;;;;;;;-0.18;67.86;99729.09;6142779;23;20020;-91
2022/11/20 04:30:42;;;;;;;19.67;9.57;;;;;;;-0.44;68.04;99687.34;6145325;23;20042;-90
2022/11/20 04:33:09;;;;;;;18.17;8.70;;;;;;;-0.24;67.53;99720.06;6170419;23;20099;-93
2022/11/20 04:35:35;;;;;;;20.10;9.27;;;;;;;-0.03;67.78;99767.09;6169807;23;20024;-91
2022/11/20 04:38:02;;;;;;;17.52;8.57;;;;;;;-0.09;67.80;99749.19;6172405;23;20043;-91
2022/11/20 04:40:29;;;;;;;18.17;9.55;;;;;;;-0.47;68.51;99726.22;6175045;23;20075;-92
2022/11/20 04:42:55;;;;;;;20.75;9.32;;;;;;;0.15;68.27;99804.59;6143899;23;20051;-91
2022/11/20 04:45:23;;;;;;;22.70;9.80;;;;;;;0.07;67.90;99786.13;6144992;23;20020;-89
2022/11/20 04:47:49;;;;;;;18.92;9.45;;;;;;;-0.14;67.66;99746.38;6144018;23;20017;-92
2022/11/20 04:50:26;;;;;;;17.35;9.02;;;;;;;-0.38;67.75;99715.97;6168671;23;20062;-90
2022/11/20 04:52:54;;;;;;;20.13;9.30;;;;;;;0.23;67.28;99785.44;6170825;23;20454;-91
2022/11/20 04:55:20;;;;;;;16.13;8.05;;;;;;;0.11;66.95;99787.31;6142881;23;20023;-92
2022/11/20 04:57:50;;;;;;;17.92;8.95;;;;;;;-0.17;67.62;99755.72;6144828;23;20044;-92
2022/11/20 05:00:17;;;;;;;20.92;9.80;;;;;;;-0.04;68.05;99784.25;6193151;23;20083;-92
2022/11/20 05:02:43;;;;;;;21.48;10.02;;;;;;;0.09;67.53;99785.88;6143724;23;20017;-91
2022/11/20 05:05:09;;;;;;;19.40;9.57;;;;;;;-0.10;66.83;99732.25;6169101;23;20084;-92
2022/11/20 05:07:35;;;;;;;20.50;9.63;;;;;;;-0.13;67.04;99710.38;6145186;23;20131;-93
2022/11/20 05:10:01;;;;;;;16.45;8.88;;;;;;;0.64;66.20;99828.59;6171988;23;20017;-92
2022/11/20 05:12:28;;;;;;;19.07;9.30;;;;;;;0.19;66.23;99764.63;6144709;23;20355;-93
2022/11/20 05:14:54;;;;;;;16.98;8.93;;;;;;;0.01;66.08;99717.19;6145185;23;20030;-95
2022/11/20 05:17:21;;;;;;;20.33;9.23;;;;;;;-0.01;65.59;99730.03;6146801;23;20474;-92
2022/11/20 05:19:47;;;;;;;19.77;8.27;;;;;;;0.17;65.67;99772.13;6146665;23;20055;-91
2022/11/20 05:22:14;;;;;;;17.75;8.82;;;;;;;-0.05;65.60;99753.06;6172706;23;20013;-93
2022/11/20 05:24:40;;;;;;;20.15;9.70;;;;;;;-0.09;66.25;99754.56;6168081;23;20019;-91
2022/11/20 05:29:35;;;;;;;22.23;10.02;;;;;;;0.65;66.04;99857.94;6221327;23;20031;-91
2022/11/20 05:32:01;;;;;;;19.55;9.23;;;;;;;0.71;65.58;99850.81;6173236;23;20021;-90
2022/11/20 05:34:28;;;;;;;16.37;9.27;;;;;;;0.33;65.93;99814.44;6148715;23;20023;-91
2022/11/20 05:36:54;;;;;;;17.88;8.95;;;;;;;0.15;66.09;99793.03;6193736;23;20017;-90
2022/11/20 05:39:20;;;;;;;16.30;8.98;;;;;;;0.15;65.80;99791.16;6146624;23;20080;-93
2022/11/20 05:41:46;;;;;;;17.17;8.82;;;;;;;0.33;64.93;99833.28;6170530;23;20016;-93
2022/11/20 05:44:32;;;;;;;17.48;9.13;;;;;;;0.30;66.07;99824.81;6173518;23;20016;-93
2022/11/20 05:46:58;;;;;;;19.83;8.93;;;;;;;0.00;65.56;99793.50;6196250;23;20020;-92
2022/11/20 05:49:26;;;;;;;17.40;8.57;;;;;;;0.17;65.52;99826.69;6144394;23;20024;-94
2022/11/20 05:51:52;;;;;;;19.65;9.18;;;;;;;-0.09;65.68;99789.50;6150587;23;20016;-91
2022/11/20 05:54:19;;;;;;;16.92;8.68;;;;;;;0.33;65.46;99862.00;6151298;23;19992;-91
2022/11/20 05:56:45;;;;;;;;;;;;;;;0.66;65.46;99891.03;6173031;23;20044;-91
2022/11/20 05:59:12;;;;;;;16.67;8.40;;;;;;;0.59;64.73;99855.34;6194313;23;19916;-90
2022/11/20 06:01:39;;;;;;;17.05;8.52;;;;;;;0.45;64.50;99852.09;6191294;23;20454;-92
2022/11/20 06:04:05;;;;;;;19.73;9.07;;;;;;;0.18;64.89;99814.88;6143963;23;20028;-92
2022/11/20 06:06:34;;;;;;;23.08;10.27;;;;;;;0.63;64.89;99888.81;6145572;23;20009;-90
2022/11/20 06:09:00;;;;;;;26.02;11.48;;;;;;;0.70;64.66;99882.28;6143297;23;20020;-91
2022/11/20 06:11:27;;;;;;;21.17;10.10;;;;;;;0.22;63.66;99797.22;6169026;23;20450;-91
2022/11/20 06:13:53;;;;;;;22.17;10.50;;;;;;;0.31;63.77;99807.66;6166738;23;20159;-91
2022/11/20 06:16:20;;;;;;;20.45;9.63;;;;;;;0.36;63.42;99797.00;6167877;23;20016;-92
2022/11/20 06:18:47;;;;;;;18.25;9.15;;;;;;;0.52;63.83;99851.97;6142879;23;20021;-92
2022/11/20 06:21:20;;;;;;;19.75;9.25;;;;;;;0.91;63.25;99896.19;6166069;23;20110;-89
2022/11/20 06:23:47;;;;;;;19.40;9.35;;;;;;;0.83;63.17;99900.06;6192794;23;20024;-92
2022/11/20 06:26:18;;;;;;;20.83;9.93;;;;;;;1.05;63.16;99943.34;6142998;23;20086;-90
2022/11/20 06:28:45;;;;;;;16.17;8.65;;;;;;;0.77;62.96;99898.31;6169916;23;20210;-91
2022/11/20 06:31:14;;;;;;;21.73;9.98;;;;;;;1.03;63.57;99939.25;6173728;23;20016;-90
2022/11/20 06:33:41;;;;;;;17.75;8.52;;;;;;;1.03;63.02;99915.03;6194969;23;20481;-90
2022/11/20 06:36:11;;;;;;;18.30;8.98;;;;;;;0.99;62.51;99901.19;6194973;23;20016;-91
2022/11/20 06:38:38;;;;;;;16.45;8.65;;;;;;;1.05;62.27;99889.50;6168419;23;20020;-92
2022/11/20 06:41:11;;;;;;;15.10;8.30;;;;;;;1.31;62.09;99930.44;6168385;23;20022;-92
2022/11/20 06:43:39;;;;;;;20.98;8.60;;;;;;;0.99;62.27;99878.84;6167415;23;20012;-89
2022/11/20 06:46:05;;;;;;;23.40;9.97;;;;;;;0.92;61.96;99852.88;6169174;23;20079;-91
2022/11/20 06:48:32;;;;;;;18.48;9.60;;;;;;;1.12;61.95;99884.78;6171626;23;20039;-90
2022/11/20 06:50:59;;;;;;;20.93;9.40;;;;;;;1.40;62.84;99937.09;6169877;23;20021;-91
2022/11/20 06:53:25;;;;;;;20.70;9.55;;;;;;;1.00;62.54;99885.88;6168375;23;20567;-91
2022/11/20 06:55:52;;;;;;;17.55;9.30;;;;;;;1.24;62.17;99919.78;6167311;23;20016;-90
2022/11/20 06:58:19;;;;;;;17.75;9.93;;;;;;;1.05;62.46;99889.50;6146948;23;20406;-90
2022/11/20 07:00:46;;;;;;;17.55;9.52;;;;;;;1.10;61.66;99883.41;6192199;23;20016;-91
2022/11/20 07:03:13;;;;;;;19.02;9.25;;;;;;;1.43;62.27;99933.94;6170857;23;20044;-91
2022/11/20 07:05:40;;;;;;;20.77;8.95;;;;;;;1.24;61.79;99906.34;6145642;23;20443;-91
2022/11/20 07:08:06;;;;;;;18.67;9.18;;;;;;;1.60;61.42;99951.00;6142756;23;20012;-93
2022/11/20 07:10:33;;;;;;;21.42;10.23;;;;;;;1.41;61.79;99926.06;6192251;23;20447;-93
2022/11/20 07:12:59;;;;;;;18.77;9.40;;;;;;;1.43;61.50;99908.88;6144467;23;20511;-91
2022/11/20 07:15:26;;;;;;;19.48;9.93;;;;;;;1.16;61.47;99872.50;6141739;23;20021;-91
2022/11/20 07:17:52;;;;;;;17.77;9.57;;;;;;;1.10;62.16;99886.09;6190498;23;20570;-91
2022/11/20 07:20:18;;;;;;;21.27;9.70;;;;;;;1.18;62.25;99935.00;6141891;23;20255;-90
2022/11/20 07:22:56;;;;;;;18.80;9.38;;;;;;;1.11;62.59;99934.31;6166331;23;20248;-89
2022/11/20 07:25:23;;;;;;;23.55;11.30;;;;;;;1.22;62.42;99924.59;6190560;23;20021;-91
2022/11/20 07:27:49;;;;;;;25.08;10.32;;;;;;;0.94;62.12;99858.03;6139804;23;20012;-89
2022/11/20 07:30:16;;;;;;;19.67;9.15;;;;;;;1.35;61.49;99915.44;6189575;23;20027;-90
2022/11/20 07:32:42;;;;;;;20.27;10.68;;;;;;;1.35;61.47;99908.16;6142031;23;20024;-90
2022/11/20 07:35:09;;;;;;;18.33;9.85;;;;;;;1.14;61.84;99898.84;6165584;23;20021;-90
2022/11/20 07:37:35;;;;;;;27.90;13.15;;;;;;;0.87;61.50;99843.88;6164678;23;20043;-90
2022/11/20 07:40:01;;;;;;;28.57;13.27;;;;;;;1.21;61.58;99887.94;6191543;23;20406;-87
2022/11/20 07:42:29;;;;;;;30.48;14.60;;;;;;;0.96;61.50;99855.94;6142134;23;20256;-90
2022/11/20 07:44:55;;;;;;;30.17;13.48;;;;;;;1.32;61.67;99942.84;6165108;23;20068;-89
2022/11/20 07:47:22;;;;;;;24.95;12.88;;;;;;;1.38;61.87;99948.09;6142409;23;20012;-89
2022/11/20 07:49:48;;;;;;;36.42;14.95;;;;;;;1.38;62.25;99936.50;6164824;23;20047;-91
2022/11/20 07:52:14;;;;;;;38.22;13.75;;;;;;;1.54;61.35;99933.06;6140654;23;20017;-90
2022/11/20 07:54:40;;;;;;;29.42;14.25;;;;;;;1.37;61.60;99922.22;6190048;23;20012;-88
2022/11/20 07:57:06;;;;;;;22.00;10.95;;;;;;;1.49;61.20;99940.22;6165661;23;20016;-91
2022/11/20 07:59:33;;;;;;;25.75;12.43;;;;;;;1.76;61.07;99970.19;6140671;23;20021;-92
2022/11/20 08:01:59;;;;;;;23.23;11.40;;;;;;;1.35;60.72;99888.50;6141618;23;20558;-90
2022/11/20 08:04:27;;;;;;;24.88;12.48;;;;;;;1.76;60.31;99946.75;6168850;23;20040;-91
2022/11/20 08:06:55;;;;;;;26.45;11.82;;;;;;;1.95;60.24;99970.81;6141613;23;20023;-90
2022/11/20 08:09:21;;;;;;;43.22;12.88;;;;;;;1.75;60.73;99952.34;6191874;23;20526;-92
2022/11/20 08:14:33;;;;;;;23.87;12.70;;;;;;;1.72;60.05;99933.97;6167715;23;20016;-91
2022/11/20 08:16:59;;;;;;;25.30;12.85;;;;;;;1.63;59.59;99912.78;6166871;23;20028;-90
2022/11/20 08:19:25;;;;;;;31.20;13.27;;;;;;;1.74;59.89;99926.47;6166659;23;20025;-88
2022/11/20 08:21:52;;;;;;;28.75;14.05;;;;;;;2.23;59.94;99999.66;6141056;23;20016;-91
2022/11/20 08:24:18;;;;;;;31.48;14.80;;;;;;;2.03;59.95;99957.78;6141728;23;20016;-90
2022/11/20 08:26:46;;;;;;;30.52;12.90;;;;;;;1.72;59.66;99920.47;6188882;23;20043;-91
2022/11/20 08:29:13;;;;;;;27.48;12.75;;;;;;;1.65;59.21;99902.56;6166264;23;20112;-91
2022/11/20 08:31:39;;;;;;;33.05;14.60;;;;;;;2.03;59.18;99954.25;6163670;23;20020;-89
2022/11/20 08:34:05;;;;;;;23.10;11.23;;;;;;;1.58;59.64;99896.50;6164157;23;20391;-90
2022/11/20 08:36:34;;;;;;;24.60;12.23;;;;;;;1.85;59.56;99918.34;6190429;23;20021;-89
2022/11/20 08:39:02;;;;;;;25.25;11.77;;;;;;;1.96;59.37;99932.03;6193380;23;20040;-90
2022/11/20 08:41:32;;;;;;;25.75;11.98;;;;;;;1.94;58.73;99901.78;6142690;23;20436;-91
2022/11/20 08:44:04;;;;;;;28.13;12.70;;;;;;;2.19;58.30;99933.78;6140594;23;20121;-92
2022/11/20 08:46:39;;;;;;;25.85;12.93;;;;;;;2.57;58.62;99990.56;6166409;23;20026;-91
2022/11/20 08:49:09;;;;;;;25.55;12.55;;;;;;;2.56;58.93;99996.22;6140727;23;20024;-90
2022/11/20 08:51:36;;;;;;;25.77;11.88;;;;;;;1.96;58.70;99956.28;6140635;23;20025;-90
2022/11/20 08:54:02;;;;;;;24.23;11.68;;;;;;;2.19;59.06;99990.44;6142278;23;20021;-88
2022/11/20 08:56:28;;;;;;;21.77;12.13;;;;;;;2.25;58.96;99989.44;6141999;23;20450;-90
2022/11/20 08:58:55;;;;;;;25.35;12.18;;;;;;;2.20;59.15;99973.19;6193073;23;20060;-90
2022/11/20 09:01:23;;;;;;;25.15;12.32;;;;;;;2.65;58.72;100040.66;6146322;23;20027;-89
2022/11/20 09:03:49;;;;;;;21.52;12.40;;;;;;;2.02;58.64;99931.88;6172501;23;20016;-91
2022/11/20 09:06:20;;;;;;;24.10;12.70;;;;;;;2.42;58.30;99979.53;6141813;23;20024;-91
2022/11/20 09:13:34;;;;;;;26.88;13.50;;;;;;;2.77;58.85;100054.88;6187009;23;20017;-90
2022/11/20 09:16:30;;;;;;;32.22;14.52;;;;;;;2.01;58.43;99930.22;6165283;23;20017;-90
2022/11/20 09:18:58;;;;;;;27.98;15.25;;;;;;;2.68;58.32;100034.78;6163583;23;20416;-92
2022/11/20 09:21:24;;;;;;;29.23;13.95;;;;;;;2.70;58.86;100029.94;6163738;23;20023;-90
2022/11/20 09:23:50;;;;;;;28.80;14.13;;;;;;;2.49;58.16;100001.78;6165178;23;20020;-90
2022/11/20 09:26:17;;;;;;;36.40;16.02;;;;;;;2.64;58.31;100038.19;6138103;23;20012;-90
2022/11/20 09:28:43;;;;;;;32.55;14.43;;;;;;;2.68;58.59;100048.28;6214779;23;20024;-89
2022/11/20 09:31:22;;;;;;;32.80;14.32;;;;;;;2.23;58.29;99995.09;6141190;23;20016;-91
2022/11/20 09:33:49;;;;;;;38.42;16.95;;;;;;;2.32;59.43;100036.81;6165320;23;20024;-90
2022/11/20 09:36:16;;;;;;;38.90;17.65;;;;;;;2.00;59.27;99965.53;6143434;23;20027;-90
2022/11/20 09:38:47;;;;;;;46.75;19.08;;;;;;;2.45;59.39;100048.34;6169758;23;20043;-91
2022/11/20 09:41:43;;;;;;;39.00;17.75;;;;;;;2.71;59.21;100087.44;6163251;23;20016;-90
2022/11/20 09:44:44;;;;;;;39.75;17.92;;;;;;;2.30;59.41;100008.44;6163315;23;20016;-89
2022/11/20 09:47:37;;;;;;;39.95;17.35;;;;;;;2.62;58.77;100048.41;6191921;23;20043;-90
2022/11/20 09:50:25;;;;;;;43.00;17.92;;;;;;;2.50;58.64;100022.28;6191478;23;20016;-91
2022/11/20 09:53:14;;;;;;;45.85;18.13;;;;;;;3.05;58.81;100078.34;6189345;23;20024;-91
2022/11/20 09:55:41;;;;;;;47.30;19.55;;;;;;;2.59;58.49;100003.84;6162792;23;20016;-90
2022/11/20 10:02:39;;;;;;;46.55;20.50;;;;;;;2.92;59.36;100078.66;6007448;23;20024;-90
2022/11/20 10:05:12;;;;;;;56.55;19.95;;;;;;;2.95;59.77;100094.38;6009372;23;20046;-91
2022/11/20 10:08:11;;;;;;;43.95;21.02;;;;;;;2.51;59.39;100037.41;5992040;23;20027;-91
2022/11/20 10:10:45;;;;;;;50.25;21.85;;;;;;;2.66;60.01;100054.97;5981854;24;20020;-91
2022/11/20 10:13:44;;;;;;;42.78;19.30;;;;;;;2.42;60.61;100022.69;5963378;24;20031;-90
2022/11/20 10:16:30;;;;;;;47.13;19.08;;;;;;;2.89;61.16;100103.44;5959030;24;20023;-90
2022/11/20 10:19:10;;;;;;;48.40;19.60;;;;;;;2.80;61.66;100103.00;5982969;24;20071;-91
2022/11/20 10:21:54;;;;;;;55.67;21.02;;;;;;;2.61;62.43;100103.44;5984068;24;20028;-89
2022/11/20 10:24:39;;;;;;;47.58;19.55;;;;;;;2.68;62.60;100112.22;5958461;24;20107;-91
2022/11/20 10:27:32;;;;;;;44.92;18.92;;;;;;;2.67;62.76;100110.59;5930694;24;20039;-91
2022/11/20 10:30:17;;;;;;;50.60;20.50;;;;;;;2.32;62.50;100025.22;5934980;24;20530;-90
2022/11/20 10:32:48;;;;;;;49.03;20.17;;;;;;;2.11;62.50;99999.69;5955128;24;20486;-90
2022/11/20 10:35:27;;;;;;;63.47;22.13;;;;;;;2.88;62.62;100115.31;5931189;24;20025;-91
2022/11/20 10:38:00;;;;;;;49.92;21.02;;;;;;;2.33;62.02;100014.16;5982547;23;20049;-91
2022/11/20 10:40:35;;;;;;;55.58;21.10;;;;;;;2.29;62.84;100064.28;6074477;23;20028;-91
2022/11/20 10:43:28;;;;;;;55.35;20.58;;;;;;;1.91;63.37;100013.59;6102261;23;20052;-93
2022/11/20 10:48:49;;;;;;;50.38;20.00;;;;;;;1.93;64.37;100070.00;6251392;23;20032;-91
2022/11/20 10:51:22;;;;;;;;;;;;;;;2.19;64.81;100126.13;6200176;23;20083;-91
2022/11/20 10:54:20;;;;;;;53.13;20.45;;;;;;;2.41;64.91;100137.06;6171631;23;19918;-90
2022/11/20 10:57:03;;;;;;;47.53;18.83;;;;;;;2.22;63.59;100073.53;6172529;23;20020;-92
2022/11/20 10:59:55;;;;;;;64.53;21.48;;;;;;;1.93;63.93;100035.75;6170377;23;20020;-90
2022/11/20 11:02:46;;;;;;;61.25;21.95;;;;;;;2.33;63.29;100078.09;6220181;23;20019;-90
2022/11/20 11:09:54;;;;;;;39.20;17.02;;;;;;;1.80;62.76;100033.34;6135232;23;20025;-93
2022/11/20 11:12:23;;;;;;;46.35;18.45;;;;;;;2.34;63.11;100147.19;6016349;23;20045;-92
2022/11/20 11:14:52;;;;;;;37.65;16.92;;;;;;;2.35;62.50;100114.56;6068641;23;20019;-92
2022/11/20 11:17:28;;;;;;;38.78;16.63;;;;;;;2.11;62.57;100069.81;6068614;23;20027;-91
2022/11/20 11:20:39;;;;;;;;;;;;;;;;;;;;;
2022/11/20 11:23:36;;;;;;;35.42;15.00;;;;;;;2.29;63.09;100145.22;6065716;23;20048;-91
2022/11/20 11:26:08;;;;;;;43.92;15.95;;;;;;;1.65;62.97;100061.56;6064694;23;20058;-92
2022/11/20 11:29:04;;;;;;;33.63;15.00;;;;;;;1.97;62.54;100090.84;6041112;23;20027;-90
2022/11/20 11:32:22;;;;;;;29.45;14.02;;;;;;;2.10;62.68;100122.13;6018309;23;20030;-90
2022/11/20 11:35:06;;;;;;;35.33;14.63;;;;;;;2.04;62.97;100094.22;5980895;24;20073;-89
2022/11/20 11:37:41;;;;;;;35.42;15.00;;;;;;;1.96;63.01;100093.78;5957672;24;20475;-92
2022/11/20 11:40:11;;;;;;;29.77;13.80;;;;;;;1.82;62.49;100064.41;5958859;24;20094;-90
2022/11/20 11:42:44;;;;;;;32.40;14.95;;;;;;;1.47;63.00;100029.38;6021145;23;20025;-91
2022/11/20 11:49:22;;;;;;;22.95;12.27;;;;;;;1.79;62.49;100082.91;6111850;23;20036;-91
2022/11/20 11:52:22;;;;;;;26.70;13.10;;;;;;;1.47;62.33;100033.97;6079909;23;20024;-90
2022/11/20 11:54:55;;;;;;;27.08;12.02;;;;;;;1.65;63.09;100095.78;6075050;23;20029;-90
2022/11/20 11:57:46;;;;;;;32.38;14.35;;;;;;;1.55;63.13;100101.78;6077611;23;20100;-89
2022/11/20 12:00:59;;;;;;;;;;;;;;;;;;;;;
2022/11/20 12:03:43;;;;;;;34.50;12.60;;;;;;;1.87;62.83;100166.13;6100264;23;20022;-89
2022/11/20 12:06:16;;;;;;;25.80;13.05;;;;;;;1.54;63.36;100123.56;6099999;23;20046;-90
2022/11/20 12:08:59;;;;;;;23.95;12.90;;;;;;;1.71;63.13;100156.84;6080417;23;20157;-91
2022/11/20 12:11:54;;;;;;;22.55;12.35;;;;;;;0.99;62.69;100054.66;6137117;23;20016;-91
2022/11/20 12:14:27;;;;;;;26.23;12.20;;;;;;;1.75;61.77;100163.41;6173707;23;20020;-90
2022/11/20 12:17:24;;;;;;;34.10;12.25;;;;;;;1.15;62.31;100078.19;6196035;23;20725;-89